Time;durP1;ratioP1;P1;durP2;ratioP2;P2;SDS_P1;SDS_P2;PMS_P1;PMS_P2;Temp;Humidity;BMP_temperature;BMP_pressure;BME280_temperature;BME280_humidity;BME280_pressure;Samples;Min_cycle;Max_cycle;Signal;HPM_P1;HPM_P2
2022/04/21 00:03:03;;;;;;;6.57;5.25;;;;;;;8.14;95.89;101395.25;10458565;28;20059;-61
2022/04/21 00:08:05;;;;;;;7.55;5.22;;;;;;;7.95;97.97;101394.22;10445825;28;20092;-62
2022/04/21 00:13:08;;;;;;;6.03;5.43;;;;;;;8.04;96.38;101386.06;10457944;28;20061;-62
2022/04/21 00:18:10;;;;;;;11.48;6.20;;;;;;;7.90;95.01;101380.50;10458650;28;20059;-62
2022/04/21 00:23:29;;;;;;;9.45;6.25;;;;;;;7.90;95.29;101378.78;10457248;28;20487;-62
2022/04/21 00:28:32;;;;;;;8.10;6.18;;;;;;;8.02;94.01;101368.75;10423492;28;20053;-62
2022/04/21 00:33:34;;;;;;;6.90;5.72;;;;;;;7.94;95.96;101364.69;10418422;28;20049;-61
2022/04/21 00:38:36;;;;;;;6.35;5.38;;;;;;;8.00;96.30;101361.00;10436394;28;20045;-62
2022/04/21 00:43:39;;;;;;;6.43;5.82;;;;;;;7.90;95.75;101362.25;10455558;28;20057;-61
2022/04/21 00:48:41;;;;;;;8.15;5.65;;;;;;;7.67;95.76;101363.13;10458482;28;20045;-62
2022/04/21 00:53:44;;;;;;;8.48;6.55;;;;;;;7.70;94.78;101350.81;10455741;28;20052;-61
2022/04/21 00:58:47;;;;;;;7.03;6.25;;;;;;;7.72;97.09;101354.22;10441763;28;20041;-62
2022/04/21 01:03:49;;;;;;;12.98;6.95;;;;;;;7.63;96.54;101354.53;10401946;28;20049;-61
2022/04/21 01:08:52;;;;;;;11.43;8.00;;;;;;;7.53;97.02;101360.97;10436867;28;20049;-62
2022/04/21 01:13:55;;;;;;;9.68;6.72;;;;;;;7.92;90.94;101361.31;10434521;28;20064;-62
2022/04/21 01:18:57;;;;;;;13.48;8.07;;;;;;;7.51;94.86;101360.19;10419693;28;20049;-61
2022/04/21 01:23:59;;;;;;;7.60;6.47;;;;;;;7.67;92.44;101363.13;10412929;28;20056;-62
2022/04/21 01:29:03;;;;;;;8.85;6.40;;;;;;;7.62;94.10;101360.66;10438259;28;20496;-61
2022/04/21 01:34:05;;;;;;;7.47;6.15;;;;;;;7.49;95.54;101357.63;10419676;28;20054;-61
2022/04/21 01:44:28;;;;;;;8.52;7.15;;;;;;;7.22;97.43;101355.09;10453511;28;20053;-62
2022/04/21 01:49:31;;;;;;;12.35;7.60;;;;;;;7.19;98.47;101349.97;10415148;28;20050;-61
2022/04/21 01:54:33;;;;;;;10.30;7.72;;;;;;;7.22;96.94;101349.88;10415763;28;20049;-61
2022/04/21 01:59:36;;;;;;;10.13;8.35;;;;;;;7.15;96.74;101342.34;10426159;28;20041;-62
2022/04/21 02:04:38;;;;;;;10.13;8.27;;;;;;;6.95;98.92;101343.88;10454503;28;20499;-62
2022/04/21 02:09:41;;;;;;;13.38;9.45;;;;;;;7.02;99.46;101349.72;10428446;28;20045;-61
2022/04/21 02:14:43;;;;;;;9.73;7.78;;;;;;;6.94;99.44;101338.72;10415449;28;20058;-62
2022/04/21 02:19:46;;;;;;;8.65;7.65;;;;;;;7.03;95.20;101341.03;10434116;28;20052;-61
2022/04/21 02:24:48;;;;;;;11.18;7.90;;;;;;;6.91;99.85;101341.41;10456151;28;20049;-61
2022/04/21 02:29:52;;;;;;;11.55;7.55;;;;;;;6.80;99.75;101328.78;10453488;28;20045;-62
2022/04/21 02:34:55;;;;;;;9.85;7.32;;;;;;;6.66;100.00;101331.81;10455364;28;20111;-61
2022/04/21 02:39:57;;;;;;;8.45;7.60;;;;;;;6.79;100.00;101329.66;10436144;28;20048;-61
2022/04/21 02:45:00;;;;;;;10.55;7.47;;;;;;;6.72;100.00;101326.41;10419241;28;20436;-61
2022/04/21 02:50:04;;;;;;;9.77;6.95;;;;;;;6.51;100.00;101317.56;10422675;28;20049;-61
2022/04/21 03:00:28;;;;;;;8.93;6.83;;;;;;;6.67;99.33;101325.69;10440226;28;20048;-61
2022/04/21 03:05:30;;;;;;;8.48;7.20;;;;;;;6.82;98.38;101322.59;10462051;28;20060;-61
2022/04/21 03:10:32;;;;;;;10.50;7.20;;;;;;;6.58;98.42;101320.81;10440185;28;20404;-62
2022/04/21 03:15:35;;;;;;;8.73;7.05;;;;;;;6.41;100.00;101310.94;10460138;28;20499;-61
2022/04/21 03:25:58;;;;;;;7.90;6.97;;;;;;;6.67;97.99;101317.91;10442014;28;20045;-61
2022/04/21 03:31:00;;;;;;;11.93;7.03;;;;;;;6.41;100.00;101311.78;10421975;28;20049;-61
2022/04/21 03:36:03;;;;;;;10.40;6.90;;;;;;;6.56;100.00;101312.22;10421228;28;20432;-61
2022/04/21 03:41:10;;;;;;;7.50;6.70;;;;;;;6.36;100.00;101320.66;10438240;28;20088;-61
2022/04/21 03:46:13;;;;;;;9.20;6.65;;;;;;;6.35;100.00;101326.75;10419702;28;20053;-61
2022/04/21 03:51:16;;;;;;;10.27;7.50;;;;;;;6.20;100.00;101321.09;10453026;28;20044;-61
2022/04/21 03:56:18;;;;;;;9.10;8.15;;;;;;;6.10;100.00;101322.28;10459313;28;20048;-61
2022/04/21 04:01:25;;;;;;;8.93;7.07;;;;;;;6.14;100.00;101332.56;10442090;28;20408;-61
2022/04/21 04:11:50;;;;;;;10.57;7.28;;;;;;;5.93;100.00;101339.22;10393002;28;20056;-62
2022/04/21 04:16:52;;;;;;;7.82;6.82;;;;;;;6.01;100.00;101341.63;10433907;28;20056;-61
2022/04/21 04:21:54;;;;;;;8.90;7.22;;;;;;;5.80;100.00;101347.41;10456339;28;20052;-61
2022/04/21 04:26:57;;;;;;;8.40;6.93;;;;;;;6.06;100.00;101346.69;10442138;28;20056;-61
2022/04/21 04:32:01;;;;;;;12.15;7.13;;;;;;;5.81;100.00;101342.16;10457712;28;20073;-61
2022/04/21 04:37:03;;;;;;;10.40;7.22;;;;;;;6.01;100.00;101345.97;10457346;28;20042;-61
2022/04/21 04:42:20;;;;;;;8.20;7.15;;;;;;;5.95;100.00;101355.63;10444653;28;20084;-61
2022/04/21 04:47:23;;;;;;;8.55;7.03;;;;;;;6.27;100.00;101352.97;10432118;28;20479;-61
2022/04/21 04:52:25;;;;;;;13.30;7.40;;;;;;;5.99;100.00;101355.56;10417106;28;20485;-61
2022/04/21 04:57:28;;;;;;;14.55;7.80;;;;;;;6.28;100.00;101355.53;10424553;28;20049;-61
2022/04/21 05:02:36;;;;;;;9.25;7.85;;;;;;;6.25;100.00;101358.22;10440869;28;20407;-62
2022/04/21 05:07:39;;;;;;;10.57;6.75;;;;;;;5.99;100.00;101356.41;10455231;28;20048;-61
2022/04/21 05:12:41;;;;;;;10.38;7.82;;;;;;;6.17;100.00;101364.56;10456526;28;20044;-61
2022/04/21 05:17:44;;;;;;;10.88;6.85;;;;;;;6.36;100.00;101368.31;10428636;28;20053;-61
2022/04/21 05:23:07;;;;;;;10.30;7.47;;;;;;;6.22;100.00;101349.66;10417837;28;20077;-61
2022/04/21 05:28:10;;;;;;;10.52;7.50;;;;;;;6.37;100.00;101346.63;10421067;28;20049;-61
2022/04/21 05:33:15;;;;;;;16.42;8.23;;;;;;;6.53;100.00;101341.78;10444082;28;20507;-61
2022/04/21 05:38:20;;;;;;;8.82;7.60;;;;;;;6.61;100.00;101339.78;10457468;28;20071;-61
2022/04/21 05:43:25;;;;;;;10.65;7.45;;;;;;;6.99;100.00;101342.88;10433638;28;20088;-61
2022/04/21 05:48:27;;;;;;;11.68;7.88;;;;;;;6.99;100.00;101342.00;10417656;28;20045;-61
2022/04/21 05:53:36;;;;;;;12.52;7.68;;;;;;;7.35;100.00;101339.91;10442078;28;20131;-61
2022/04/21 05:58:38;;;;;;;14.68;8.23;;;;;;;7.65;100.00;101346.66;10398419;22;20061;-63
2022/04/21 06:03:41;;;;;;;8.85;6.93;;;;;;;7.60;100.00;101347.69;10375836;28;20046;-63
2022/04/21 06:08:43;;;;;;;14.07;8.77;;;;;;;7.94;100.00;101340.38;10377417;28;20407;-63
2022/04/21 06:13:46;;;;;;;13.55;7.95;;;;;;;8.05;97.55;101337.38;10373815;28;20042;-64
2022/04/21 06:18:50;;;;;;;12.65;8.10;;;;;;;8.13;93.86;101335.31;10373097;28;20056;-63
2022/04/21 06:23:52;;;;;;;10.98;8.57;;;;;;;8.35;98.42;101335.31;10378918;28;20050;-63
2022/04/21 06:28:57;;;;;;;10.98;7.50;;;;;;;8.85;94.84;101329.00;10382364;28;20061;-63
2022/04/21 06:33:59;;;;;;;8.88;6.60;;;;;;;8.43;96.86;101329.84;10382135;28;20050;-63
2022/04/21 06:39:03;;;;;;;12.02;7.55;;;;;;;8.74;95.79;101327.69;10383005;28;20054;-64
2022/04/21 06:49:26;;;;;;;11.30;6.72;;;;;;;9.40;90.92;101336.25;10380565;28;20046;-63
2022/04/21 06:54:28;;;;;;;7.22;5.80;;;;;;;9.51;90.26;101336.59;10412080;28;20120;-63
2022/04/21 06:59:30;;;;;;;10.30;6.75;;;;;;;9.79;93.31;101338.84;10402134;28;20437;-63
2022/04/21 07:04:33;;;;;;;8.05;6.57;;;;;;;10.32;85.48;101332.06;10385473;28;20041;-63
2022/04/21 07:09:35;;;;;;;10.25;6.90;;;;;;;10.47;86.29;101340.94;10385939;28;20049;-63
2022/04/21 07:14:40;;;;;;;6.72;5.80;;;;;;;11.10;84.94;101335.22;10421608;28;20053;-63
2022/04/21 07:19:42;;;;;;;7.43;5.53;;;;;;;11.52;81.10;101339.16;10420730;28;20496;-63
2022/04/21 07:24:45;;;;;;;6.00;5.40;;;;;;;12.24;77.09;101334.44;10421333;28;20073;-63
2022/04/21 07:29:48;;;;;;;7.93;5.50;;;;;;;11.87;74.99;101335.59;10421093;28;20049;-63
2022/04/21 07:34:50;;;;;;;10.30;6.45;;;;;;;13.10;70.59;101341.78;10418703;28;20107;-63
2022/04/21 07:39:53;;;;;;;5.55;4.97;;;;;;;13.62;69.75;101340.44;10420168;28;20042;-63
2022/04/21 07:44:58;;;;;;;10.30;5.18;;;;;;;13.75;67.14;101346.63;10419936;28;20481;-63
2022/04/21 07:50:01;;;;;;;7.55;4.70;;;;;;;14.21;65.96;101336.78;10420900;28;20045;-63
2022/04/21 07:55:03;;;;;;;8.65;4.82;;;;;;;14.57;65.11;101330.91;10419921;28;20049;-63
2022/04/21 08:00:06;;;;;;;5.43;4.68;;;;;;;14.93;62.17;101320.66;10419287;28;20397;-63
2022/04/21 08:05:10;;;;;;;7.63;5.03;;;;;;;14.36;59.76;101329.69;10418522;28;20057;-63
2022/04/21 08:10:13;;;;;;;4.50;4.03;;;;;;;14.77;60.30;101321.69;10419550;28;20041;-63
2022/04/21 08:15:26;;;;;;;4.05;3.58;;;;;;;15.15;56.03;101322.72;10419358;28;20049;-63
2022/04/21 08:20:31;;;;;;;3.25;3.00;;;;;;;15.91;53.23;101321.81;10417933;28;20056;-63
2022/04/21 08:36:34;;;;;;;6.07;2.88;;;;;;;16.26;49.62;101322.88;10417939;28;20452;-63
2022/04/21 08:41:37;;;;;;;5.95;2.75;;;;;;;17.18;48.56;101320.41;10418208;28;20058;-63
2022/04/21 08:46:41;;;;;;;3.95;2.40;;;;;;;16.55;47.10;101319.88;10418012;28;20056;-63
2022/04/21 08:51:43;;;;;;;4.43;2.22;;;;;;;17.38;47.52;101325.03;10372597;28;20050;-63
2022/04/21 08:56:47;;;;;;;6.70;2.78;;;;;;;17.35;47.53;101321.75;10376415;28;20061;-63
2022/04/21 09:01:50;;;;;;;4.40;2.30;;;;;;;17.74;46.08;101319.59;10375992;28;20093;-63
2022/04/21 09:06:52;;;;;;;3.42;2.40;;;;;;;18.31;45.44;101315.88;10376569;28;20050;-64
2022/04/21 09:11:55;;;;;;;3.38;2.40;;;;;;;18.36;44.99;101308.41;10376279;28;20052;-64
2022/04/21 09:17:05;;;;;;;10.55;3.88;;;;;;;18.62;44.23;101301.91;10376174;28;20049;-64
2022/04/21 09:22:08;;;;;;;3.22;2.40;;;;;;;19.13;43.89;101306.44;10375844;28;20050;-63
2022/04/21 09:27:10;;;;;;;6.43;2.13;;;;;;;19.95;41.45;101302.84;10374631;28;20050;-64
2022/04/21 09:32:17;;;;;;;4.38;2.20;;;;;;;19.39;41.76;101295.41;10375616;28;20050;-64
2022/04/21 09:37:21;;;;;;;5.03;2.05;;;;;;;19.71;40.59;101292.56;10374403;28;20060;-64
2022/04/21 09:42:29;;;;;;;6.50;2.28;;;;;;;19.99;38.90;101285.69;10374705;28;20045;-64
2022/04/21 09:47:32;;;;;;;5.80;2.10;;;;;;;20.79;39.44;101277.56;10374680;28;20481;-64
2022/04/21 09:52:36;;;;;;;4.07;2.10;;;;;;;21.52;39.12;101277.75;10374575;28;20050;-64
2022/04/21 09:57:39;;;;;;;3.13;1.80;;;;;;;22.00;37.06;101281.09;10372906;28;20057;-64
2022/04/21 10:02:45;;;;;;;5.22;2.03;;;;;;;21.22;37.61;101278.00;10374257;28;20046;-64
2022/04/21 10:07:48;;;;;;;1.70;1.60;;;;;;;21.10;37.96;101272.03;10374283;28;20502;-64
2022/04/21 10:12:51;;;;;;;3.13;1.63;;;;;;;22.35;36.22;101263.47;10373601;28;20057;-64
2022/04/21 10:17:54;;;;;;;4.95;2.40;;;;;;;21.84;35.75;101257.78;10374126;28;20053;-65
2022/04/21 10:22:57;;;;;;;4.95;2.17;;;;;;;22.32;35.03;101246.94;10373125;28;20409;-64
2022/04/21 10:27:59;;;;;;;5.35;2.10;;;;;;;23.09;34.83;101233.78;10373736;28;20481;-64
2022/04/21 10:33:01;;;;;;;4.20;2.15;;;;;;;22.81;34.48;101229.44;10372466;28;20053;-64
2022/04/21 10:38:23;;;;;;;3.65;1.98;;;;;;;23.34;33.09;101232.06;10374408;28;20489;-65
2022/04/21 10:43:46;;;;;;;2.20;2.00;;;;;;;24.43;34.90;101220.38;10374361;28;20046;-64
2022/04/21 10:48:49;;;;;;;3.38;2.10;;;;;;;22.60;34.50;101221.78;10373863;28;20057;-64
2022/04/21 10:59:20;;;;;;;5.07;2.40;;;;;;;24.23;33.06;101211.03;10373111;28;20049;-64
2022/04/21 11:04:23;;;;;;;3.67;1.90;;;;;;;21.70;32.83;101203.19;10373098;28;20049;-64
2022/04/21 11:09:40;;;;;;;3.70;2.33;;;;;;;24.03;34.66;101197.16;10391030;28;20103;-64
2022/04/21 11:15:31;;;;;;;4.60;2.13;;;;;;;26.73;30.78;101196.84;10418850;28;20053;-64
2022/04/21 11:20:33;;;;;;;1.90;1.80;;;;;;;24.97;31.17;101186.81;10419649;28;20051;-65
2022/04/21 11:25:36;;;;;;;9.77;2.30;;;;;;;23.83;32.33;101185.94;10420099;28;20052;-64
2022/04/21 11:30:38;;;;;;;5.25;1.80;;;;;;;22.61;33.13;101190.59;10418219;28;20053;-63
2022/04/21 11:35:42;;;;;;;3.75;2.13;;;;;;;23.11;34.59;101189.06;10384380;28;20046;-64
2022/04/21 11:40:44;;;;;;;3.40;1.98;;;;;;;22.59;34.62;101180.13;10381085;28;20521;-64
2022/04/21 11:46:06;;;;;;;3.72;2.50;;;;;;;24.43;32.40;101174.88;10371072;28;21453;-64
2022/04/21 11:51:10;;;;;;;9.10;3.13;;;;;;;24.41;31.06;101166.19;10374823;28;20477;-64
2022/04/21 11:56:13;;;;;;;6.97;2.05;;;;;;;25.33;31.80;101171.06;10380157;28;20045;-64
2022/04/21 12:06:53;;;;;;;6.60;2.03;;;;;;;26.06;31.47;101163.56;10419239;28;20060;-63
2022/04/21 12:11:57;;;;;;;3.47;2.55;;;;;;;25.88;30.79;101160.34;10410827;28;20095;-64
2022/04/21 12:17:01;;;;;;;6.28;2.13;;;;;;;24.62;31.73;101152.28;10384025;28;20046;-63
2022/04/21 12:22:08;;;;;;;3.83;2.45;;;;;;;26.67;28.92;101149.22;10369983;28;20405;-64
2022/04/21 12:27:36;;;;;;;5.75;2.50;;;;;;;27.12;29.36;101149.16;10374113;28;20060;-64
2022/04/21 12:32:49;;;;;;;5.65;2.30;;;;;;;26.21;30.39;101143.97;10330066;28;20050;-64
2022/04/21 12:38:50;;;;;;;9.23;2.85;;;;;;;24.33;33.56;101136.78;10329836;28;20054;-63
2022/04/21 12:43:23;;;;;;;9.03;2.43;;;;;;;25.76;32.05;101133.94;10329081;28;20054;-64
2022/04/21 12:48:27;;;;;;;4.72;2.53;;;;;;;25.38;32.50;101139.22;10329613;28;20054;-64
2022/04/21 12:53:31;;;;;;;9.45;2.63;;;;;;;24.67;34.39;101125.81;10344667;28;20515;-63
2022/04/21 12:58:34;;;;;;;6.50;3.33;;;;;;;24.68;35.04;101118.66;10366715;28;20524;-63
2022/04/21 13:03:38;;;;;;;3.10;2.03;;;;;;;26.42;32.30;101101.13;10367666;28;20759;-64
2022/04/21 13:08:40;;;;;;;8.75;2.45;;;;;;;26.03;33.07;101106.75;10369330;28;20054;-63
2022/04/21 13:13:42;;;;;;;4.50;2.90;;;;;;;25.13;33.10;101098.34;10368603;28;20397;-66
2022/04/21 13:18:48;;;;;;;5.63;2.92;;;;;;;23.99;34.19;101089.69;10369076;28;20053;-66
2022/04/21 13:23:50;;;;;;;4.70;2.28;;;;;;;26.44;32.16;101084.84;10368778;28;20060;-66
2022/04/21 13:28:52;;;;;;;15.27;4.13;;;;;;;24.48;32.04;101076.19;10369159;28;20053;-66
2022/04/21 13:33:54;;;;;;;7.70;3.00;;;;;;;25.61;32.90;101062.53;10367614;28;20046;-66
2022/04/21 13:38:58;;;;;;;9.45;3.10;;;;;;;25.96;32.98;101058.38;10366987;28;20068;-66
2022/04/21 13:44:01;;;;;;;5.45;2.45;;;;;;;24.72;32.86;101060.22;10368770;28;20053;-66
2022/04/21 13:49:24;;;;;;;4.57;2.30;;;;;;;25.91;33.75;101047.34;10367575;28;20504;-66
2022/04/21 13:54:26;;;;;;;5.57;2.25;;;;;;;26.60;32.82;101047.06;10367958;28;20057;-66
2022/04/21 13:59:28;;;;;;;6.88;2.40;;;;;;;25.15;33.56;101039.19;10367498;28;20069;-66
2022/04/21 14:04:31;;;;;;;3.45;2.40;;;;;;;25.57;33.49;101030.72;10365348;28;20061;-66
2022/04/21 14:09:33;;;;;;;5.28;2.20;;;;;;;25.06;34.02;101040.28;10369910;28;20572;-66
2022/04/21 14:14:36;;;;;;;4.32;3.03;;;;;;;25.92;34.84;101027.53;10374750;28;20049;-66
2022/04/21 14:19:38;;;;;;;5.47;2.95;;;;;;;25.10;35.63;101021.00;10374881;28;20133;-66
2022/04/21 14:24:43;;;;;;;3.85;2.75;;;;;;;22.67;40.05;101019.19;10374217;28;20052;-66
2022/04/21 14:29:46;;;;;;;3.88;2.85;;;;;;;24.83;36.25;101012.47;10374904;28;20100;-66
2022/04/21 14:34:48;;;;;;;9.05;2.80;;;;;;;25.22;35.07;100998.13;10374475;28;20069;-66
2022/04/21 14:45:11;;;;;;;5.63;3.22;;;;;;;23.51;38.96;100997.81;10380929;28;20481;-66
2022/04/21 14:50:15;;;;;;;8.50;3.75;;;;;;;23.18;37.49;100990.63;10381891;28;20046;-66
2022/04/21 14:55:17;;;;;;;7.47;3.05;;;;;;;22.63;39.61;100986.66;10381921;28;20518;-66
2022/04/21 15:00:20;;;;;;;7.80;3.25;;;;;;;21.56;40.91;100981.75;10382712;28;20050;-66
2022/04/21 15:05:22;;;;;;;5.47;3.75;;;;;;;21.89;41.08;100980.16;10381277;28;20060;-65
2022/04/21 15:10:25;;;;;;;5.32;3.40;;;;;;;21.56;43.10;100985.25;10379998;28;20060;-66
2022/04/21 15:15:27;;;;;;;11.48;3.80;;;;;;;22.43;42.41;100979.94;10415947;28;20057;-66
2022/04/21 15:20:30;;;;;;;4.13;3.33;;;;;;;23.25;41.44;100979.25;10384701;28;20046;-66
2022/04/21 15:25:32;;;;;;;5.05;3.55;;;;;;;22.67;39.99;100981.00;10379320;28;20061;-66
2022/04/21 15:30:37;;;;;;;8.13;3.97;;;;;;;19.77;43.54;100991.00;10372830;28;20050;-67
2022/04/21 15:35:44;;;;;;;4.30;3.65;;;;;;;20.26;44.42;100991.72;10373674;28;20152;-67
2022/04/21 15:40:46;;;;;;;4.75;3.35;;;;;;;20.52;44.39;100986.53;10410279;28;20137;-67
2022/04/21 15:45:49;;;;;;;5.70;3.97;;;;;;;19.75;45.56;100985.00;10413590;28;20049;-67
2022/04/21 15:50:51;;;;;;;8.10;3.88;;;;;;;20.34;45.85;100983.00;10411714;28;20061;-66
2022/04/21 16:01:15;;;;;;;7.88;3.85;;;;;;;20.13;45.85;100986.72;10412987;28;20053;-64
2022/04/21 16:06:20;;;;;;;7.18;3.50;;;;;;;19.77;47.59;100997.19;10412863;28;20053;-64
2022/04/21 16:11:27;;;;;;;4.60;3.65;;;;;;;19.93;48.00;101001.06;10391724;28;20137;-64
2022/04/21 16:16:29;;;;;;;8.70;4.28;;;;;;;19.65;47.58;100999.13;10376525;28;20062;-64
2022/04/21 16:21:32;;;;;;;9.02;4.80;;;;;;;19.62;47.61;101001.25;10372447;28;20045;-63
2022/04/21 16:26:34;;;;;;;6.28;4.57;;;;;;;19.35;46.73;101005.47;10366187;28;20061;-64
2022/04/21 16:31:38;;;;;;;9.38;5.20;;;;;;;19.14;48.39;100994.13;10366909;28;20057;-64
2022/04/21 16:36:41;;;;;;;6.35;4.50;;;;;;;18.69;48.92;101000.72;10380987;28;20053;-64
2022/04/21 16:41:43;;;;;;;10.07;4.40;;;;;;;18.29;49.24;100996.28;10368654;28;20061;-63
2022/04/21 16:46:45;;;;;;;7.05;3.90;;;;;;;18.46;48.71;101003.59;10370358;28;20061;-64
2022/04/21 16:51:48;;;;;;;9.95;4.80;;;;;;;18.07;51.14;100984.03;10371274;28;20050;-64
2022/04/21 16:56:57;;;;;;;4.57;3.97;;;;;;;17.88;50.40;100992.75;10370739;28;20062;-64
2022/04/21 17:07:21;;;;;;;8.27;4.60;;;;;;;17.76;51.24;101002.53;10368652;28;20057;-64
2022/04/21 17:12:24;;;;;;;8.23;4.18;;;;;;;17.63;52.41;100992.13;10369440;28;20053;-64
2022/04/21 17:17:26;;;;;;;6.05;4.20;;;;;;;17.39;51.84;100995.88;10371567;28;20054;-63
2022/04/21 17:22:28;;;;;;;6.85;4.40;;;;;;;17.28;52.42;101003.84;10369028;28;20046;-64
2022/04/21 17:27:31;;;;;;;11.00;4.88;;;;;;;17.18;52.77;100995.00;10372739;28;20053;-64
2022/04/21 17:32:33;;;;;;;9.35;5.03;;;;;;;16.81;55.18;101004.09;10409322;28;20049;-63
2022/04/21 17:37:35;;;;;;;7.78;4.85;;;;;;;16.75;56.34;100994.00;10369336;28;20049;-63
2022/04/21 17:42:38;;;;;;;6.25;4.18;;;;;;;16.60;55.82;101003.16;10366196;28;20128;-64
2022/04/21 17:47:40;;;;;;;10.00;5.45;;;;;;;16.68;55.77;101000.75;10385966;28;20060;-64
2022/04/21 17:52:43;;;;;;;7.07;4.95;;;;;;;16.47;56.53;101008.56;10412936;28;20576;-63
2022/04/21 17:57:45;;;;;;;6.75;4.30;;;;;;;16.22;57.48;101007.84;10415291;28;20053;-64
2022/04/21 18:02:47;;;;;;;6.90;5.10;;;;;;;16.06;60.42;101008.22;10415512;28;20060;-64
2022/04/21 18:07:50;;;;;;;7.00;5.07;;;;;;;15.94;60.32;101009.16;10415628;28;20053;-63
2022/04/21 18:12:52;;;;;;;8.02;4.32;;;;;;;16.09;56.73;101010.63;10423027;22;20045;-58
2022/04/21 18:17:55;;;;;;;6.63;4.10;;;;;;;16.14;58.28;100997.91;10416981;28;20400;-58
2022/04/21 18:22:57;;;;;;;6.53;4.40;;;;;;;15.66;58.64;101005.94;10423217;28;20049;-58
2022/04/21 18:27:59;;;;;;;7.35;4.22;;;;;;;15.63;59.67;101007.97;10423031;28;20045;-58
2022/04/21 18:33:02;;;;;;;4.68;3.50;;;;;;;15.74;55.61;101010.66;10423498;28;20072;-57
2022/04/21 18:38:04;;;;;;;8.48;3.30;;;;;;;15.32;55.69;101005.84;10423358;28;20057;-60
2022/04/21 18:43:07;;;;;;;5.35;2.55;;;;;;;15.47;53.56;101006.50;10423065;28;20289;-60
2022/04/21 18:48:09;;;;;;;7.43;2.78;;;;;;;14.96;53.93;100998.81;10422343;28;20518;-60
2022/04/21 18:53:11;;;;;;;5.32;2.72;;;;;;;15.00;54.11;100997.66;10422106;28;20378;-60
2022/04/21 18:58:28;;;;;;;3.85;2.80;;;;;;;14.80;55.73;101002.56;10421346;28;20049;-60
2022/04/21 19:03:30;;;;;;;10.20;2.80;;;;;;;14.97;54.96;100997.88;10422277;28;20042;-60
2022/04/21 19:13:54;;;;;;;;;;;;;;;14.79;60.01;100995.63;10421738;28;20050;-60
2022/04/21 19:18:57;;;;;;;5.07;2.65;;;;;;;14.63;57.65;100982.69;10421119;28;19928;-60
2022/04/21 19:23:59;;;;;;;5.22;3.03;;;;;;;14.76;57.76;100984.44;10420785;28;20439;-59
2022/04/21 19:29:02;;;;;;;5.80;2.50;;;;;;;14.76;59.71;100982.66;10420098;28;20046;-59
2022/04/21 19:34:07;;;;;;;6.20;3.35;;;;;;;14.62;59.37;100982.81;10420514;28;20512;-60
2022/04/21 19:39:10;;;;;;;5.32;2.60;;;;;;;14.59;59.82;100986.50;10419778;28;20064;-60
2022/04/21 19:44:12;;;;;;;3.75;2.65;;;;;;;14.46;61.76;100980.41;10419911;28;20045;-60
2022/04/21 19:49:14;;;;;;;7.55;3.45;;;;;;;14.59;61.91;100967.22;10420371;28;20084;-60
2022/04/21 19:54:17;;;;;;;5.68;2.80;;;;;;;14.55;62.04;100963.09;10420312;28;20041;-60
2022/04/21 19:59:19;;;;;;;3.28;2.70;;;;;;;14.70;62.20;100966.47;10420142;28;20061;-60
2022/04/21 20:04:23;;;;;;;4.05;3.03;;;;;;;14.45;62.36;100958.47;10438310;28;20059;-60
2022/04/21 20:09:25;;;;;;;5.70;2.92;;;;;;;14.46;62.45;100961.97;10427224;28;20050;-59
2022/04/21 20:14:28;;;;;;;5.90;3.10;;;;;;;14.54;63.50;100951.72;10418446;28;20058;-57
2022/04/21 20:30:14;;;;;;;7.65;4.22;;;;;;;14.34;69.07;100965.44;10459567;28;20045;-57
2022/04/21 20:35:16;;;;;;;13.15;4.22;;;;;;;14.41;69.23;100956.19;10458288;28;20044;-57
2022/04/21 20:40:18;;;;;;;8.98;4.40;;;;;;;14.11;71.60;100954.75;10453146;28;20044;-57
2022/04/21 20:45:21;;;;;;;7.00;4.85;;;;;;;14.28;66.84;100943.84;10456946;28;20048;-57
2022/04/21 20:50:23;;;;;;;10.18;4.75;;;;;;;14.29;66.76;100934.19;10417523;28;20045;-57
2022/04/21 20:55:25;;;;;;;6.38;5.00;;;;;;;14.25;67.51;100951.13;10436212;28;20048;-57
2022/04/21 21:00:28;;;;;;;6.43;4.15;;;;;;;13.96;69.55;100945.28;10446107;28;20054;-57
2022/04/21 21:05:30;;;;;;;6.30;4.05;;;;;;;13.89;67.71;100955.41;10418585;28;20045;-57
2022/04/21 21:10:33;;;;;;;9.52;4.25;;;;;;;13.74;66.17;100959.91;10426912;28;20500;-57
2022/04/21 21:15:35;;;;;;;9.38;4.68;;;;;;;13.60;65.39;100954.72;10438072;28;20049;-57
2022/04/21 21:20:37;;;;;;;5.65;4.05;;;;;;;13.55;65.32;100949.81;10456549;28;20094;-57
2022/04/21 21:25:40;;;;;;;4.55;3.80;;;;;;;13.32;65.61;100953.97;10457474;28;20045;-57
2022/04/21 21:30:42;;;;;;;8.38;4.28;;;;;;;13.23;65.88;100957.16;10457242;28;20488;-57
2022/04/21 21:35:45;;;;;;;6.40;4.07;;;;;;;12.89;67.88;100965.47;10446972;28;20519;-57
2022/04/21 21:40:47;;;;;;;6.97;3.75;;;;;;;12.83;68.63;100964.06;10416274;28;20052;-57
2022/04/21 21:45:49;;;;;;;7.22;4.32;;;;;;;12.85;69.27;100963.16;10416199;28;20059;-57
2022/04/21 21:56:13;;;;;;;7.90;3.97;;;;;;;12.64;70.46;100971.44;10415964;28;20538;-57
2022/04/21 22:01:16;;;;;;;7.00;4.10;;;;;;;12.66;70.82;100969.56;10416894;28;20052;-57
2022/04/21 22:06:18;;;;;;;10.02;5.13;;;;;;;12.45;73.10;100967.34;10446309;28;20091;-57
2022/04/21 22:11:21;;;;;;;9.90;4.38;;;;;;;12.54;71.29;100967.69;10455425;28;20052;-57
2022/04/21 22:16:23;;;;;;;4.88;4.18;;;;;;;12.55;70.42;100962.34;10456879;28;20049;-57
2022/04/21 22:21:26;;;;;;;10.30;5.38;;;;;;;12.26;73.99;100954.53;10423815;28;20079;-57
2022/04/21 22:26:28;;;;;;;12.32;4.88;;;;;;;12.19;75.62;100952.38;10414791;28;20053;-57
2022/04/21 22:31:31;;;;;;;7.25;4.70;;;;;;;12.18;73.85;100954.16;10415317;28;20056;-57
2022/04/21 22:36:33;;;;;;;15.20;6.10;;;;;;;12.06;75.43;100954.91;10447018;28;20442;-57
2022/04/21 22:41:36;;;;;;;8.35;5.60;;;;;;;11.92;75.43;100950.50;10453732;28;20060;-57
2022/04/21 22:46:39;;;;;;;11.25;5.70;;;;;;;11.98;76.61;100949.28;10456287;28;20049;-57
2022/04/21 22:51:42;;;;;;;8.05;5.25;;;;;;;12.04;77.68;100938.44;10456127;28;20052;-57
2022/04/21 22:56:44;;;;;;;8.73;6.57;;;;;;;11.76;79.05;100940.06;10437686;28;20056;-57
2022/04/21 23:01:47;;;;;;;10.40;5.60;;;;;;;11.90;79.27;100942.69;10415134;28;20048;-57
2022/04/21 23:06:49;;;;;;;9.43;6.03;;;;;;;11.78;79.80;100947.84;10420886;28;20111;-56
2022/04/21 23:17:14;;;;;;;10.75;6.50;;;;;;;11.71;81.59;100956.06;10421847;28;20053;-57
2022/04/21 23:22:16;;;;;;;10.73;6.47;;;;;;;11.48;81.89;100933.84;10440647;28;20040;-57
2022/04/21 23:27:19;;;;;;;9.15;6.13;;;;;;;11.63;82.08;100936.47;10422720;28;20057;-57
2022/04/21 23:32:21;;;;;;;11.13;7.20;;;;;;;11.40;83.04;100932.56;10419469;28;20400;-57
2022/04/21 23:37:24;;;;;;;9.60;6.07;;;;;;;11.23;85.82;100934.44;10424353;28;20075;-56
2022/04/21 23:42:26;;;;;;;9.20;7.05;;;;;;;11.25;86.65;100929.94;10459872;28;20052;-56
2022/04/21 23:47:28;;;;;;;11.52;7.03;;;;;;;11.31;84.64;100924.34;10460827;28;20060;-56
2022/04/21 23:52:30;;;;;;;8.13;7.22;;;;;;;11.08;88.68;100927.47;10461716;28;20048;-56
2022/04/21 23:57:33;;;;;;;13.43;9.52;;;;;;;10.92;89.29;100933.53;10420523;28;20045;-56
